Impacts TAF Board
For situational awareness. Not to be used for flight planning purposes.
IDs:

KMEM - Memphis Intl, TN, US

Issued at 1725 UTC 24 Sep 2018
Updated at 1809 UTC 24 Sep 2018
Potential Impact None Slight Moderate High
Time<<25/19Z 25/20Z 25/21Z 25/22Z 25/23Z 26/00Z 26/01Z 26/02Z 26/03Z 26/04Z 26/05Z 26/06Z 26/07Z
Type PRVL PRVL PRVL PRVL PRVL
VIS >6 >6 >6 >6 >6
CIG 30 30 30 30 30
Cover OVC OVC OVC OVC OVC
FltCat MVFR MVFR MVFR MVFR MVFR
WX VCSH VCSH VCSH VCSH VCSH
WDir 190 190 190 190 190
WSpd 8 8 8 8 8
WGst -- -- -- -- --
Raw TAF
KMEM 241725Z 2418/2524 16006KT P6SM VCSH SCT015 BKN025
  FM242000 15008KT P6SM VCTS SCT025 BKN035CB
  FM250100 15007KT P6SM VCSH SCT025 BKN060
  FM251000 18008KT 5SM BR VCSH BKN025
  FM251500 19008KT P6SM VCSH FEW010 BKN030 OVC100


METAR Board
Radar Display
Forecast Discussion
For situational awareness. Not to be used for flight planning purposes.